This is the latest recevied weather packets stored in our database for station/object HS2LXA-WX. If no packets are shown the sender has not sent any weather packets the latest 10 day(s).
| Time | Temp. | Humidity | Pressure | Rain* | Wind** | Luminosity | Snow |
|---|---|---|---|---|---|---|---|
| 1778256431 | 28.33° C | 84% | 1013.1 hPa | 0 mm | - | - | - |
| 1778255828 | 28.89° C | 81% | 1013.1 hPa | 0 mm | - | - | - |
| 1778255228 | 28.89° C | 82% | 1013.1 hPa | 0 mm | - | - | - |
| 1778254626 | 28.89° C | 82% | 1013.2 hPa | 0 mm | - | - | - |
| 1778254026 | 28.89° C | 81% | 1013.1 hPa | 0 mm | - | - | - |
| 1778253426 | 28.89° C | 79% | 1013.1 hPa | 0 mm | - | - | - |
| 1778252826 | 28.89° C | 80% | 1013.2 hPa | 0 mm | - | - | - |
| 1778252226 | 28.33° C | 80% | 1013.1 hPa | 0 mm | - | - | - |
| 1778251626 | 28.89° C | 78% | 1013.1 hPa | 0 mm | - | - | - |
| 1778251026 | 28.89° C | 79% | 1013.1 hPa | 0 mm | - | - | - |
| 1778250426 | 28.89° C | 78% | 1013.1 hPa | 0 mm | - | - | - |
| 1778249826 | 28.89° C | 76% | 1013.1 hPa | 0 mm | - | - | - |
| 1778249224 | 28.89° C | 75% | 1013.1 hPa | 0 mm | - | - | - |
| 1778248625 | 28.89° C | 76% | 1013.2 hPa | 0 mm | - | - | - |
| 1778248020 | 28.89° C | 76% | 1013.2 hPa | 0 mm | - | - | - |
| 1778246352 | 29.44° C | 75% | 1013.1 hPa | 0 mm | - | - | - |
| 1778245752 | 28.89° C | 77% | 1013.2 hPa | 0 mm | - | - | - |
| 1778245150 | 28.89° C | 76% | 1013.1 hPa | 0 mm | - | - | - |
| 1778243980 | 29.44° C | 74% | 1013.1 hPa | 0 mm | - | - | - |
| 1778243379 | 28.89° C | 77% | 1013.1 hPa | 0 mm | - | - | - |
| 1778242779 | 28.89° C | 77% | 1013.2 hPa | 0 mm | - | - | - |
| 1778242181 | 29.44° C | 75% | 1013.1 hPa | 0 mm | - | - | - |
| 1778241579 | 28.89° C | 77% | 1013.2 hPa | 0 mm | - | - | - |
| 1778240685 | 29.44° C | 73% | 1013.2 hPa | 0 mm | - | - | - |
| 1778240085 | 30° C | 74% | 1013.1 hPa | 0 mm | - | - | - |
* Rain latest hour (hover to see other rain measurements)
** Current wind speed in m/s (hover to see current wind gust speed)